sensor_id;sensor_type;location;lat;lon;timestamp;P1;durP1;ratioP1;P2;durP2;ratioP2
16460;SDS011;8341;42.048;24.650;2023-07-31T00:00:06;7.03;;;4.00;;
16460;SDS011;8341;42.048;24.650;2023-07-31T00:02:34;4.63;;;3.53;;
16460;SDS011;8341;42.048;24.650;2023-07-31T00:05:03;5.78;;;3.88;;
16460;SDS011;8341;42.048;24.650;2023-07-31T00:07:32;4.47;;;3.90;;
16460;SDS011;8341;42.048;24.650;2023-07-31T00:09:59;4.80;;;3.80;;
16460;SDS011;8341;42.048;24.650;2023-07-31T00:12:26;4.45;;;3.25;;
16460;SDS011;8341;42.048;24.650;2023-07-31T00:14:53;4.45;;;3.40;;
16460;SDS011;8341;42.048;24.650;2023-07-31T00:17:20;3.55;;;3.17;;
16460;SDS011;8341;42.048;24.650;2023-07-31T00:19:47;3.55;;;3.15;;
16460;SDS011;8341;42.048;24.650;2023-07-31T00:22:17;5.82;;;2.80;;
16460;SDS011;8341;42.048;24.650;2023-07-31T00:24:44;5.68;;;3.22;;
16460;SDS011;8341;42.048;24.650;2023-07-31T00:27:11;4.20;;;3.13;;
16460;SDS011;8341;42.048;24.650;2023-07-31T00:29:38;4.82;;;3.05;;
16460;SDS011;8341;42.048;24.650;2023-07-31T00:32:05;3.45;;;3.15;;
16460;SDS011;8341;42.048;24.650;2023-07-31T00:34:33;5.10;;;3.20;;
16460;SDS011;8341;42.048;24.650;2023-07-31T00:37:00;3.33;;;2.85;;
16460;SDS011;8341;42.048;24.650;2023-07-31T00:39:29;3.10;;;2.55;;
16460;SDS011;8341;42.048;24.650;2023-07-31T00:41:57;2.85;;;2.58;;
16460;SDS011;8341;42.048;24.650;2023-07-31T00:44:24;2.90;;;2.70;;
16460;SDS011;8341;42.048;24.650;2023-07-31T00:46:51;2.50;;;2.40;;
16460;SDS011;8341;42.048;24.650;2023-07-31T00:49:18;3.20;;;2.47;;
16460;SDS011;8341;42.048;24.650;2023-07-31T00:51:45;4.75;;;2.60;;
16460;SDS011;8341;42.048;24.650;2023-07-31T18:42:36;6.93;;;6.38;;
16460;SDS011;8341;42.048;24.650;2023-07-31T18:45:03;5.82;;;5.07;;
16460;SDS011;8341;42.048;24.650;2023-07-31T18:47:31;5.53;;;5.07;;
16460;SDS011;8341;42.048;24.650;2023-07-31T18:49:58;6.43;;;5.82;;
16460;SDS011;8341;42.048;24.650;2023-07-31T18:52:25;6.40;;;5.80;;
16460;SDS011;8341;42.048;24.650;2023-07-31T18:54:52;7.00;;;6.40;;
16460;SDS011;8341;42.048;24.650;2023-07-31T18:57:19;9.43;;;7.45;;
16460;SDS011;8341;42.048;24.650;2023-07-31T18:59:47;10.63;;;7.65;;
16460;SDS011;8341;42.048;24.650;2023-07-31T19:02:14;7.40;;;6.70;;
16460;SDS011;8341;42.048;24.650;2023-07-31T19:04:41;6.72;;;6.10;;
16460;SDS011;8341;42.048;24.650;2023-07-31T19:07:08;6.35;;;5.80;;
16460;SDS011;8341;42.048;24.650;2023-07-31T19:09:35;7.00;;;6.28;;
16460;SDS011;8341;42.048;24.650;2023-07-31T19:12:02;6.53;;;5.93;;
16460;SDS011;8341;42.048;24.650;2023-07-31T19:14:30;10.57;;;6.35;;
16460;SDS011;8341;42.048;24.650;2023-07-31T19:16:58;7.13;;;6.47;;
16460;SDS011;8341;42.048;24.650;2023-07-31T19:19:25;7.40;;;6.70;;
16460;SDS011;8341;42.048;24.650;2023-07-31T19:21:52;9.18;;;7.00;;
16460;SDS011;8341;42.048;24.650;2023-07-31T19:24:19;7.88;;;6.82;;
16460;SDS011;8341;42.048;24.650;2023-07-31T19:26:48;7.75;;;7.05;;
16460;SDS011;8341;42.048;24.650;2023-07-31T19:29:15;8.13;;;7.32;;
16460;SDS011;8341;42.048;24.650;2023-07-31T19:31:42;7.97;;;7.28;;
16460;SDS011;8341;42.048;24.650;2023-07-31T19:34:10;7.88;;;7.15;;
16460;SDS011;8341;42.048;24.650;2023-07-31T19:36:38;7.85;;;7.18;;
16460;SDS011;8341;42.048;24.650;2023-07-31T19:41:59;7.60;;;7.00;;
16460;SDS011;8341;42.048;24.650;2023-07-31T19:44:26;7.70;;;6.97;;
16460;SDS011;8341;42.048;24.650;2023-07-31T19:46:53;7.30;;;6.70;;
16460;SDS011;8341;42.048;24.650;2023-07-31T19:49:21;7.28;;;6.78;;
16460;SDS011;8341;42.048;24.650;2023-07-31T19:51:48;8.48;;;7.78;;
16460;SDS011;8341;42.048;24.650;2023-07-31T19:54:15;8.20;;;7.50;;
16460;SDS011;8341;42.048;24.650;2023-07-31T19:56:42;8.50;;;7.70;;
16460;SDS011;8341;42.048;24.650;2023-07-31T19:59:09;8.10;;;7.40;;
16460;SDS011;8341;42.048;24.650;2023-07-31T20:01:36;8.50;;;7.80;;
16460;SDS011;8341;42.048;24.650;2023-07-31T20:04:03;8.18;;;7.40;;
16460;SDS011;8341;42.048;24.650;2023-07-31T20:06:32;8.10;;;7.30;;
16460;SDS011;8341;42.048;24.650;2023-07-31T20:08:59;8.77;;;8.07;;
16460;SDS011;8341;42.048;24.650;2023-07-31T20:11:29;8.40;;;7.70;;
16460;SDS011;8341;42.048;24.650;2023-07-31T20:13:56;8.20;;;7.35;;
16460;SDS011;8341;42.048;24.650;2023-07-31T20:16:23;7.57;;;6.97;;
16460;SDS011;8341;42.048;24.650;2023-07-31T20:18:50;8.00;;;7.40;;
16460;SDS011;8341;42.048;24.650;2023-07-31T20:21:17;8.48;;;7.78;;
16460;SDS011;8341;42.048;24.650;2023-07-31T20:23:45;8.10;;;7.38;;
16460;SDS011;8341;42.048;24.650;2023-07-31T20:26:12;8.45;;;7.63;;
16460;SDS011;8341;42.048;24.650;2023-07-31T20:28:39;8.32;;;7.63;;
16460;SDS011;8341;42.048;24.650;2023-07-31T20:31:06;8.10;;;7.47;;
16460;SDS011;8341;42.048;24.650;2023-07-31T20:33:33;8.10;;;7.40;;
16460;SDS011;8341;42.048;24.650;2023-07-31T20:36:00;8.85;;;8.15;;
16460;SDS011;8341;42.048;24.650;2023-07-31T20:38:29;8.20;;;7.50;;
16460;SDS011;8341;42.048;24.650;2023-07-31T20:40:58;7.32;;;6.82;;
16460;SDS011;8341;42.048;24.650;2023-07-31T20:43:25;7.63;;;6.97;;
16460;SDS011;8341;42.048;24.650;2023-07-31T20:45:52;8.00;;;7.40;;
16460;SDS011;8341;42.048;24.650;2023-07-31T20:48:18;7.32;;;6.70;;
16460;SDS011;8341;42.048;24.650;2023-07-31T20:50:46;7.07;;;6.47;;
16460;SDS011;8341;42.048;24.650;2023-07-31T20:53:13;7.57;;;6.95;;
16460;SDS011;8341;42.048;24.650;2023-07-31T20:55:41;7.25;;;6.65;;
16460;SDS011;8341;42.048;24.650;2023-07-31T20:58:09;6.85;;;6.25;;
16460;SDS011;8341;42.048;24.650;2023-07-31T21:00:36;8.05;;;7.22;;
16460;SDS011;8341;42.048;24.650;2023-07-31T21:03:04;6.95;;;6.43;;
16460;SDS011;8341;42.048;24.650;2023-07-31T21:05:32;6.60;;;6.07;;
16460;SDS011;8341;42.048;24.650;2023-07-31T21:07:59;6.70;;;6.10;;
16460;SDS011;8341;42.048;24.650;2023-07-31T21:10:26;5.85;;;5.35;;
16460;SDS011;8341;42.048;24.650;2023-07-31T21:12:52;6.00;;;5.53;;
16460;SDS011;8341;42.048;24.650;2023-07-31T21:15:21;4.93;;;4.55;;
16460;SDS011;8341;42.048;24.650;2023-07-31T21:17:48;5.22;;;4.82;;
16460;SDS011;8341;42.048;24.650;2023-07-31T21:20:15;5.57;;;5.18;;
16460;SDS011;8341;42.048;24.650;2023-07-31T21:22:42;5.35;;;4.90;;
16460;SDS011;8341;42.048;24.650;2023-07-31T21:25:09;5.03;;;4.63;;
16460;SDS011;8341;42.048;24.650;2023-07-31T21:27:36;5.28;;;4.78;;
16460;SDS011;8341;42.048;24.650;2023-07-31T21:30:03;4.53;;;4.13;;
16460;SDS011;8341;42.048;24.650;2023-07-31T21:32:32;4.57;;;4.20;;
16460;SDS011;8341;42.048;24.650;2023-07-31T21:34:59;5.38;;;4.97;;
16460;SDS011;8341;42.048;24.650;2023-07-31T21:37:26;5.15;;;4.57;;
16460;SDS011;8341;42.048;24.650;2023-07-31T21:39:53;4.88;;;4.40;;
16460;SDS011;8341;42.048;24.650;2023-07-31T21:42:20;4.82;;;4.43;;
16460;SDS011;8341;42.048;24.650;2023-07-31T21:44:47;4.82;;;3.60;;
16460;SDS011;8341;42.048;24.650;2023-07-31T21:47:14;4.13;;;3.83;;
16460;SDS011;8341;42.048;24.650;2023-07-31T21:49:43;4.18;;;3.75;;
16460;SDS011;8341;42.048;24.650;2023-07-31T21:52:10;4.00;;;3.70;;
16460;SDS011;8341;42.048;24.650;2023-07-31T21:54:37;4.47;;;4.18;;
16460;SDS011;8341;42.048;24.650;2023-07-31T21:57:04;5.30;;;4.85;;
16460;SDS011;8341;42.048;24.650;2023-07-31T21:59:32;4.95;;;4.63;;
16460;SDS011;8341;42.048;24.650;2023-07-31T22:02:01;4.63;;;4.22;;
16460;SDS011;8341;42.048;24.650;2023-07-31T22:04:28;4.45;;;4.15;;
16460;SDS011;8341;42.048;24.650;2023-07-31T22:06:56;4.63;;;4.22;;
16460;SDS011;8341;42.048;24.650;2023-07-31T22:09:23;4.68;;;4.32;;
16460;SDS011;8341;42.048;24.650;2023-07-31T22:11:50;4.57;;;4.18;;
16460;SDS011;8341;42.048;24.650;2023-07-31T22:14:17;4.03;;;3.83;;
16460;SDS011;8341;42.048;24.650;2023-07-31T22:16:44;4.30;;;4.00;;
16460;SDS011;8341;42.048;24.650;2023-07-31T22:19:11;4.20;;;3.83;;
16460;SDS011;8341;42.048;24.650;2023-07-31T22:21:38;3.88;;;3.65;;
16460;SDS011;8341;42.048;24.650;2023-07-31T22:24:07;4.43;;;4.10;;
16460;SDS011;8341;42.048;24.650;2023-07-31T22:26:34;3.90;;;3.60;;
16460;SDS011;8341;42.048;24.650;2023-07-31T22:29:01;3.90;;;3.65;;
16460;SDS011;8341;42.048;24.650;2023-07-31T22:31:28;4.07;;;3.78;;
16460;SDS011;8341;42.048;24.650;2023-07-31T22:33:55;3.90;;;3.70;;
16460;SDS011;8341;42.048;24.650;2023-07-31T22:36:22;3.72;;;3.42;;
16460;SDS011;8341;42.048;24.650;2023-07-31T22:38:49;4.35;;;4.05;;
16460;SDS011;8341;42.048;24.650;2023-07-31T22:41:17;3.90;;;3.60;;
16460;SDS011;8341;42.048;24.650;2023-07-31T22:43:44;4.40;;;4.10;;
16460;SDS011;8341;42.048;24.650;2023-07-31T22:46:11;4.20;;;3.80;;
16460;SDS011;8341;42.048;24.650;2023-07-31T22:48:38;4.00;;;3.70;;
16460;SDS011;8341;42.048;24.650;2023-07-31T22:51:05;4.32;;;4.03;;
16460;SDS011;8341;42.048;24.650;2023-07-31T22:53:33;3.78;;;3.58;;
16460;SDS011;8341;42.048;24.650;2023-07-31T22:56:02;3.90;;;3.70;;
16460;SDS011;8341;42.048;24.650;2023-07-31T22:58:30;5.93;;;4.05;;
16460;SDS011;8341;42.048;24.650;2023-07-31T23:01:02;3.88;;;3.58;;
16460;SDS011;8341;42.048;24.650;2023-07-31T23:03:29;3.72;;;3.53;;
16460;SDS011;8341;42.048;24.650;2023-07-31T23:05:56;4.32;;;4.03;;
16460;SDS011;8341;42.048;24.650;2023-07-31T23:08:24;4.65;;;4.22;;
16460;SDS011;8341;42.048;24.650;2023-07-31T23:10:51;4.05;;;3.85;;
16460;SDS011;8341;42.048;24.650;2023-07-31T23:13:19;3.80;;;3.60;;
16460;SDS011;8341;42.048;24.650;2023-07-31T23:15:47;4.68;;;4.35;;
16460;SDS011;8341;42.048;24.650;2023-07-31T23:18:14;4.43;;;4.00;;
16460;SDS011;8341;42.048;24.650;2023-07-31T23:20:41;4.40;;;4.10;;
16460;SDS011;8341;42.048;24.650;2023-07-31T23:23:15;4.53;;;4.22;;
16460;SDS011;8341;42.048;24.650;2023-07-31T23:25:42;4.97;;;4.57;;
16460;SDS011;8341;42.048;24.650;2023-07-31T23:28:09;5.10;;;4.70;;
16460;SDS011;8341;42.048;24.650;2023-07-31T23:30:36;5.07;;;4.68;;
16460;SDS011;8341;42.048;24.650;2023-07-31T23:33:05;5.15;;;4.68;;
16460;SDS011;8341;42.048;24.650;2023-07-31T23:35:32;5.03;;;4.60;;
16460;SDS011;8341;42.048;24.650;2023-07-31T23:37:58;4.43;;;4.03;;
16460;SDS011;8341;42.048;24.650;2023-07-31T23:40:25;4.57;;;4.28;;
16460;SDS011;8341;42.048;24.650;2023-07-31T23:42:53;4.55;;;4.25;;
16460;SDS011;8341;42.048;24.650;2023-07-31T23:45:20;4.35;;;4.05;;
16460;SDS011;8341;42.048;24.650;2023-07-31T23:47:48;4.72;;;4.43;;
16460;SDS011;8341;42.048;24.650;2023-07-31T23:50:16;5.80;;;4.68;;
16460;SDS011;8341;42.048;24.650;2023-07-31T23:52:43;4.53;;;4.22;;
16460;SDS011;8341;42.048;24.650;2023-07-31T23:55:11;4.70;;;4.30;;
16460;SDS011;8341;42.048;24.650;2023-07-31T23:57:38;4.38;;;4.13;;
